This is the latest recevied weather packets stored in our database for station/object GW1561. If no packets are shown the sender has not sent any weather packets the latest 10 day(s).
| Time | Temp. | Humidity | Pressure | Rain* | Wind** | Luminosity | Snow |
|---|---|---|---|---|---|---|---|
| 1777379443 | 13.89° C | 91% | 983.7 hPa | 0 mm | - | - | - |
| 1777377651 | 13.33° C | 95% | 983 hPa | 0 mm | - | - | - |
| 1777376930 | 13.33° C | 94% | 982.7 hPa | 0 mm | - | - | - |
| 1777374051 | 12.78° C | 93% | - | 0 mm | - | - | - |
| 1777373323 | 12.22° C | 94% | - | 0 mm | - | - | - |
| 1777371886 | 12.22° C | 93% | - | 0 mm | - | - | - |
| 1777371509 | 12.22° C | 94% | - | 0 mm | - | - | - |
| 1777367892 | 11.67° C | 97% | 983.4 hPa | 0 mm | - | - | - |
| 1777366828 | 11.67° C | 97% | 983.7 hPa | 0 mm | - | - | - |
| 1777366464 | 11.67° C | 97% | 983.4 hPa | 0 mm | - | - | - |
| 1777365750 | 11.67° C | 96% | 983.4 hPa | 0 mm | - | - | - |
| 1777363960 | 11.67° C | 96% | - | 0 mm | - | - | - |
| 1777361788 | 11.67° C | 94% | 982.3 hPa | 0 mm | - | - | - |
| 1777360346 | 12.22° C | 94% | 983.7 hPa | 0 mm | - | - | - |
| 1777356025 | 13.89° C | 91% | 987.4 hPa | 0 mm | - | - | - |
| 1777350613 | 18.33° C | 50% | 985.4 hPa | 0 mm | - | - | - |
| 1777349561 | 18.89° C | 49% | 985.4 hPa | 0 mm | - | - | - |
| 1777348490 | 18.89° C | 48% | 985.4 hPa | 0 mm | - | - | - |
| 1777347395 | 19.44° C | 47% | 985.1 hPa | 0 mm | - | - | - |
| 1777346688 | 19.44° C | 49% | 985.1 hPa | 0 mm | - | - | - |
| 1777343791 | 20.56° C | 45% | 985.4 hPa | 0 mm | - | - | - |
| 1777340930 | 21.11° C | 42% | 985.1 hPa | 0 mm | - | - | - |
| 1777340547 | 21.11° C | 42% | 984.7 hPa | 0 mm | - | - | - |
| 1777340207 | 21.67° C | 42% | 984.7 hPa | 0 mm | - | - | - |
| 1777337298 | 22.22° C | 43% | 984 hPa | 0 mm | - | - | - |
* Rain since midnight (hover to see other rain measurements)
** Current wind speed in m/s (hover to see current wind gust speed)